sensor_id;sensor_type;location;lat;lon;timestamp;temperature;humidity
5429;DHT22;2737;52.386;9.980;2023-04-08T00:01:51;5.60;99.90
5429;DHT22;2737;52.386;9.980;2023-04-08T00:04:18;5.60;99.90
5429;DHT22;2737;52.386;9.980;2023-04-08T00:06:45;5.50;99.90
5429;DHT22;2737;52.386;9.980;2023-04-08T00:09:14;5.60;99.90
5429;DHT22;2737;52.386;9.980;2023-04-08T00:11:41;5.60;99.90
5429;DHT22;2737;52.386;9.980;2023-04-08T00:14:08;5.60;99.90
5429;DHT22;2737;52.386;9.980;2023-04-08T00:16:35;5.60;99.90
5429;DHT22;2737;52.386;9.980;2023-04-08T00:19:02;5.50;99.90
5429;DHT22;2737;52.386;9.980;2023-04-08T00:21:31;5.50;99.90
5429;DHT22;2737;52.386;9.980;2023-04-08T00:23:58;5.50;99.90
5429;DHT22;2737;52.386;9.980;2023-04-08T00:26:26;5.50;99.90
5429;DHT22;2737;52.386;9.980;2023-04-08T00:28:53;5.60;99.90
5429;DHT22;2737;52.386;9.980;2023-04-08T00:31:20;5.60;99.90
5429;DHT22;2737;52.386;9.980;2023-04-08T00:33:47;5.60;99.90
5429;DHT22;2737;52.386;9.980;2023-04-08T00:36:14;5.60;99.90
5429;DHT22;2737;52.386;9.980;2023-04-08T00:38:42;5.70;99.90
5429;DHT22;2737;52.386;9.980;2023-04-08T00:41:09;5.70;99.90
5429;DHT22;2737;52.386;9.980;2023-04-08T00:43:37;5.70;99.90
5429;DHT22;2737;52.386;9.980;2023-04-08T00:46:04;5.60;99.90
5429;DHT22;2737;52.386;9.980;2023-04-08T00:48:31;5.60;99.90
5429;DHT22;2737;52.386;9.980;2023-04-08T00:50:59;5.60;99.90
5429;DHT22;2737;52.386;9.980;2023-04-08T00:53:26;5.60;99.90
5429;DHT22;2737;52.386;9.980;2023-04-08T00:55:53;5.70;99.90
5429;DHT22;2737;52.386;9.980;2023-04-08T00:58:20;5.60;99.90
5429;DHT22;2737;52.386;9.980;2023-04-08T01:00:52;5.60;99.90
5429;DHT22;2737;52.386;9.980;2023-04-08T01:03:26;5.60;99.90
5429;DHT22;2737;52.386;9.980;2023-04-08T01:06:01;5.60;99.90
5429;DHT22;2737;52.386;9.980;2023-04-08T01:08:34;5.60;99.90
5429;DHT22;2737;52.386;9.980;2023-04-08T01:11:05;5.60;99.90
5429;DHT22;2737;52.386;9.980;2023-04-08T01:13:38;5.50;99.90
5429;DHT22;2737;52.386;9.980;2023-04-08T01:16:10;5.50;99.90
5429;DHT22;2737;52.386;9.980;2023-04-08T01:18:39;5.50;99.90
5429;DHT22;2737;52.386;9.980;2023-04-08T01:21:07;5.60;99.90
5429;DHT22;2737;52.386;9.980;2023-04-08T01:23:40;5.60;99.90
5429;DHT22;2737;52.386;9.980;2023-04-08T01:26:12;5.50;99.90
5429;DHT22;2737;52.386;9.980;2023-04-08T01:28:48;5.50;99.90
5429;DHT22;2737;52.386;9.980;2023-04-08T01:31:17;5.50;99.90
5429;DHT22;2737;52.386;9.980;2023-04-08T01:33:45;5.50;99.90
5429;DHT22;2737;52.386;9.980;2023-04-08T01:36:14;5.50;99.90
5429;DHT22;2737;52.386;9.980;2023-04-08T01:38:43;5.40;99.90
5429;DHT22;2737;52.386;9.980;2023-04-08T01:41:11;5.30;99.90
5429;DHT22;2737;52.386;9.980;2023-04-08T01:43:39;5.30;99.90
5429;DHT22;2737;52.386;9.980;2023-04-08T01:46:09;5.30;99.90
5429;DHT22;2737;52.386;9.980;2023-04-08T01:48:37;5.30;99.90
5429;DHT22;2737;52.386;9.980;2023-04-08T01:51:04;5.30;99.90
5429;DHT22;2737;52.386;9.980;2023-04-08T01:53:32;5.30;99.90
5429;DHT22;2737;52.386;9.980;2023-04-08T01:56:04;5.30;99.90
5429;DHT22;2737;52.386;9.980;2023-04-08T01:58:37;5.30;99.90
5429;DHT22;2737;52.386;9.980;2023-04-08T02:01:09;5.30;99.90
5429;DHT22;2737;52.386;9.980;2023-04-08T02:03:37;5.30;99.90
5429;DHT22;2737;52.386;9.980;2023-04-08T02:06:07;5.20;99.90
5429;DHT22;2737;52.386;9.980;2023-04-08T02:08:34;5.20;99.90
5429;DHT22;2737;52.386;9.980;2023-04-08T02:11:02;5.20;99.90
5429;DHT22;2737;52.386;9.980;2023-04-08T02:13:29;5.20;99.90
5429;DHT22;2737;52.386;9.980;2023-04-08T02:16:03;5.20;99.90
5429;DHT22;2737;52.386;9.980;2023-04-08T02:18:36;5.20;99.90
5429;DHT22;2737;52.386;9.980;2023-04-08T02:21:09;5.30;99.90
5429;DHT22;2737;52.386;9.980;2023-04-08T02:23:38;5.30;99.90
5429;DHT22;2737;52.386;9.980;2023-04-08T02:26:08;5.20;99.90
5429;DHT22;2737;52.386;9.980;2023-04-08T02:28:39;5.10;99.90
5429;DHT22;2737;52.386;9.980;2023-04-08T02:31:09;5.10;99.90
5429;DHT22;2737;52.386;9.980;2023-04-08T02:33:39;5.10;99.90
5429;DHT22;2737;52.386;9.980;2023-04-08T02:36:07;5.10;99.90
5429;DHT22;2737;52.386;9.980;2023-04-08T02:38:34;5.20;99.90
5429;DHT22;2737;52.386;9.980;2023-04-08T02:41:01;5.20;99.90
5429;DHT22;2737;52.386;9.980;2023-04-08T02:43:28;5.10;99.90
5429;DHT22;2737;52.386;9.980;2023-04-08T02:45:57;5.10;99.90
5429;DHT22;2737;52.386;9.980;2023-04-08T02:48:26;5.20;99.90
5429;DHT22;2737;52.386;9.980;2023-04-08T02:50:53;5.20;99.90
5429;DHT22;2737;52.386;9.980;2023-04-08T02:53:22;5.20;99.90
5429;DHT22;2737;52.386;9.980;2023-04-08T02:55:49;5.20;99.90
5429;DHT22;2737;52.386;9.980;2023-04-08T02:58:16;5.20;99.90
5429;DHT22;2737;52.386;9.980;2023-04-08T03:00:43;5.10;99.90
5429;DHT22;2737;52.386;9.980;2023-04-08T03:03:10;5.10;99.90
5429;DHT22;2737;52.386;9.980;2023-04-08T03:05:39;5.20;99.90
5429;DHT22;2737;52.386;9.980;2023-04-08T03:08:06;5.20;99.90
5429;DHT22;2737;52.386;9.980;2023-04-08T03:10:33;5.20;99.90
5429;DHT22;2737;52.386;9.980;2023-04-08T03:13:00;5.30;99.90
5429;DHT22;2737;52.386;9.980;2023-04-08T03:15:27;5.20;99.90
5429;DHT22;2737;52.386;9.980;2023-04-08T03:17:54;5.20;99.90
5429;DHT22;2737;52.386;9.980;2023-04-08T03:20:21;5.30;99.90
5429;DHT22;2737;52.386;9.980;2023-04-08T03:22:49;5.30;99.90
5429;DHT22;2737;52.386;9.980;2023-04-08T03:25:16;5.30;99.90
5429;DHT22;2737;52.386;9.980;2023-04-08T03:27:43;5.20;99.90
5429;DHT22;2737;52.386;9.980;2023-04-08T03:30:11;5.30;99.90
5429;DHT22;2737;52.386;9.980;2023-04-08T03:32:38;5.30;99.90
5429;DHT22;2737;52.386;9.980;2023-04-08T03:35:05;5.30;99.90
5429;DHT22;2737;52.386;9.980;2023-04-08T03:37:32;5.30;99.90
5429;DHT22;2737;52.386;9.980;2023-04-08T03:40:02;5.30;99.90
5429;DHT22;2737;52.386;9.980;2023-04-08T03:42:29;5.40;99.90
5429;DHT22;2737;52.386;9.980;2023-04-08T03:44:56;5.40;99.90
5429;DHT22;2737;52.386;9.980;2023-04-08T03:47:23;5.50;99.90
5429;DHT22;2737;52.386;9.980;2023-04-08T03:49:52;5.50;99.90
5429;DHT22;2737;52.386;9.980;2023-04-08T03:52:19;5.50;99.90
5429;DHT22;2737;52.386;9.980;2023-04-08T03:54:46;5.50;99.90
5429;DHT22;2737;52.386;9.980;2023-04-08T03:57:14;5.40;99.90
5429;DHT22;2737;52.386;9.980;2023-04-08T03:59:41;5.50;99.90
5429;DHT22;2737;52.386;9.980;2023-04-08T04:02:08;5.50;99.90
5429;DHT22;2737;52.386;9.980;2023-04-08T04:04:35;5.50;99.90
5429;DHT22;2737;52.386;9.980;2023-04-08T04:07:02;5.40;99.90
5429;DHT22;2737;52.386;9.980;2023-04-08T04:09:29;5.40;99.90
5429;DHT22;2737;52.386;9.980;2023-04-08T04:11:56;5.40;99.90
5429;DHT22;2737;52.386;9.980;2023-04-08T04:14:25;5.40;99.90
5429;DHT22;2737;52.386;9.980;2023-04-08T04:16:52;5.40;99.90
5429;DHT22;2737;52.386;9.980;2023-04-08T04:19:19;5.40;99.90
5429;DHT22;2737;52.386;9.980;2023-04-08T04:21:46;5.50;99.90
5429;DHT22;2737;52.386;9.980;2023-04-08T04:24:13;5.50;99.90
5429;DHT22;2737;52.386;9.980;2023-04-08T04:26:40;5.40;99.90
5429;DHT22;2737;52.386;9.980;2023-04-08T04:29:07;5.30;99.90
5429;DHT22;2737;52.386;9.980;2023-04-08T04:31:35;5.30;99.90
5429;DHT22;2737;52.386;9.980;2023-04-08T04:34:02;5.30;99.90
5429;DHT22;2737;52.386;9.980;2023-04-08T04:36:30;5.30;99.90
5429;DHT22;2737;52.386;9.980;2023-04-08T04:38:57;5.30;99.90
5429;DHT22;2737;52.386;9.980;2023-04-08T04:41:24;5.30;99.90
5429;DHT22;2737;52.386;9.980;2023-04-08T04:43:52;5.40;99.90
5429;DHT22;2737;52.386;9.980;2023-04-08T04:46:25;5.30;99.90
5429;DHT22;2737;52.386;9.980;2023-04-08T04:48:53;5.30;99.90
5429;DHT22;2737;52.386;9.980;2023-04-08T04:51:21;5.30;99.90
5429;DHT22;2737;52.386;9.980;2023-04-08T04:53:48;5.40;99.90
5429;DHT22;2737;52.386;9.980;2023-04-08T04:56:15;5.40;99.90
5429;DHT22;2737;52.386;9.980;2023-04-08T04:58:42;5.40;99.90
5429;DHT22;2737;52.386;9.980;2023-04-08T05:01:11;5.30;99.90
5429;DHT22;2737;52.386;9.980;2023-04-08T05:03:38;5.30;99.90
5429;DHT22;2737;52.386;9.980;2023-04-08T05:06:06;5.40;99.90
5429;DHT22;2737;52.386;9.980;2023-04-08T05:08:33;5.40;99.90
5429;DHT22;2737;52.386;9.980;2023-04-08T05:11:00;5.40;99.90
5429;DHT22;2737;52.386;9.980;2023-04-08T05:13:27;5.40;99.90
5429;DHT22;2737;52.386;9.980;2023-04-08T05:15:54;5.50;99.90
5429;DHT22;2737;52.386;9.980;2023-04-08T05:18:21;5.40;99.90
5429;DHT22;2737;52.386;9.980;2023-04-08T05:20:48;5.40;99.90
5429;DHT22;2737;52.386;9.980;2023-04-08T05:23:17;5.30;99.90
5429;DHT22;2737;52.386;9.980;2023-04-08T05:25:44;5.30;99.90
5429;DHT22;2737;52.386;9.980;2023-04-08T05:28:11;5.20;99.90
5429;DHT22;2737;52.386;9.980;2023-04-08T05:30:38;5.30;99.90
5429;DHT22;2737;52.386;9.980;2023-04-08T05:33:05;5.30;99.90
5429;DHT22;2737;52.386;9.980;2023-04-08T05:35:32;5.40;99.90
5429;DHT22;2737;52.386;9.980;2023-04-08T05:37:59;5.50;99.90
5429;DHT22;2737;52.386;9.980;2023-04-08T05:40:27;5.40;99.90
5429;DHT22;2737;52.386;9.980;2023-04-08T05:42:54;5.50;99.90
5429;DHT22;2737;52.386;9.980;2023-04-08T05:45:21;5.50;99.90
5429;DHT22;2737;52.386;9.980;2023-04-08T05:47:48;5.50;99.90
5429;DHT22;2737;52.386;9.980;2023-04-08T05:50:16;5.50;99.90
5429;DHT22;2737;52.386;9.980;2023-04-08T05:52:43;5.50;99.90
5429;DHT22;2737;52.386;9.980;2023-04-08T05:55:11;5.50;99.90
5429;DHT22;2737;52.386;9.980;2023-04-08T05:57:40;5.50;99.90
5429;DHT22;2737;52.386;9.980;2023-04-08T06:00:08;5.50;99.90
5429;DHT22;2737;52.386;9.980;2023-04-08T06:02:36;5.50;99.90
5429;DHT22;2737;52.386;9.980;2023-04-08T06:05:03;5.50;99.90
5429;DHT22;2737;52.386;9.980;2023-04-08T06:07:31;5.50;99.90
5429;DHT22;2737;52.386;9.980;2023-04-08T06:09:58;5.50;99.90
5429;DHT22;2737;52.386;9.980;2023-04-08T06:12:25;5.50;99.90
5429;DHT22;2737;52.386;9.980;2023-04-08T06:14:54;5.40;99.90
5429;DHT22;2737;52.386;9.980;2023-04-08T06:17:22;5.50;99.90
5429;DHT22;2737;52.386;9.980;2023-04-08T06:19:49;5.50;99.90
5429;DHT22;2737;52.386;9.980;2023-04-08T06:22:16;5.50;99.90
5429;DHT22;2737;52.386;9.980;2023-04-08T06:24:43;5.60;99.90
5429;DHT22;2737;52.386;9.980;2023-04-08T06:27:10;5.60;99.90
5429;DHT22;2737;52.386;9.980;2023-04-08T06:29:37;5.50;99.90
5429;DHT22;2737;52.386;9.980;2023-04-08T06:32:06;5.50;99.90
5429;DHT22;2737;52.386;9.980;2023-04-08T06:34:33;5.60;99.90
5429;DHT22;2737;52.386;9.980;2023-04-08T06:37:00;5.70;99.90
5429;DHT22;2737;52.386;9.980;2023-04-08T06:39:27;5.70;99.90
5429;DHT22;2737;52.386;9.980;2023-04-08T06:41:54;5.70;99.90
5429;DHT22;2737;52.386;9.980;2023-04-08T06:44:22;5.70;99.90
5429;DHT22;2737;52.386;9.980;2023-04-08T06:46:49;5.70;99.90
5429;DHT22;2737;52.386;9.980;2023-04-08T06:49:18;5.70;99.90
5429;DHT22;2737;52.386;9.980;2023-04-08T06:51:45;5.70;99.90
5429;DHT22;2737;52.386;9.980;2023-04-08T06:54:12;5.70;99.90
5429;DHT22;2737;52.386;9.980;2023-04-08T06:56:39;5.70;99.90
5429;DHT22;2737;52.386;9.980;2023-04-08T06:59:06;5.70;99.90
5429;DHT22;2737;52.386;9.980;2023-04-08T07:01:33;5.70;99.90
5429;DHT22;2737;52.386;9.980;2023-04-08T07:04:00;5.70;99.90
5429;DHT22;2737;52.386;9.980;2023-04-08T07:06:29;5.70;99.90
5429;DHT22;2737;52.386;9.980;2023-04-08T07:08:56;5.80;99.90
5429;DHT22;2737;52.386;9.980;2023-04-08T07:11:23;5.80;99.90
5429;DHT22;2737;52.386;9.980;2023-04-08T07:13:50;5.80;99.90
5429;DHT22;2737;52.386;9.980;2023-04-08T07:16:17;5.80;99.90
5429;DHT22;2737;52.386;9.980;2023-04-08T07:18:44;5.90;99.90
5429;DHT22;2737;52.386;9.980;2023-04-08T07:21:12;5.90;99.90
5429;DHT22;2737;52.386;9.980;2023-04-08T07:23:41;5.90;99.90
5429;DHT22;2737;52.386;9.980;2023-04-08T07:26:08;5.90;99.90
5429;DHT22;2737;52.386;9.980;2023-04-08T07:28:35;5.90;99.90
5429;DHT22;2737;52.386;9.980;2023-04-08T07:31:10;5.90;99.90
5429;DHT22;2737;52.386;9.980;2023-04-08T07:33:37;5.90;99.90
5429;DHT22;2737;52.386;9.980;2023-04-08T07:36:04;5.90;99.90
5429;DHT22;2737;52.386;9.980;2023-04-08T07:38:31;5.90;99.90
5429;DHT22;2737;52.386;9.980;2023-04-08T07:41:00;5.90;99.90
5429;DHT22;2737;52.386;9.980;2023-04-08T07:43:27;5.90;99.90
5429;DHT22;2737;52.386;9.980;2023-04-08T07:45:59;6.00;99.90
5429;DHT22;2737;52.386;9.980;2023-04-08T07:48:27;6.00;99.90
5429;DHT22;2737;52.386;9.980;2023-04-08T07:50:54;6.10;99.90
5429;DHT22;2737;52.386;9.980;2023-04-08T07:53:21;6.10;99.90
5429;DHT22;2737;52.386;9.980;2023-04-08T07:55:49;6.10;99.90
5429;DHT22;2737;52.386;9.980;2023-04-08T07:58:17;6.10;99.90
5429;DHT22;2737;52.386;9.980;2023-04-08T08:00:44;6.10;99.90
5429;DHT22;2737;52.386;9.980;2023-04-08T08:03:11;6.20;99.90
5429;DHT22;2737;52.386;9.980;2023-04-08T08:05:38;6.20;99.90
5429;DHT22;2737;52.386;9.980;2023-04-08T08:08:05;6.30;99.90
5429;DHT22;2737;52.386;9.980;2023-04-08T08:10:33;6.20;99.90
5429;DHT22;2737;52.386;9.980;2023-04-08T08:13:00;6.10;99.90
5429;DHT22;2737;52.386;9.980;2023-04-08T08:15:28;6.20;99.90
5429;DHT22;2737;52.386;9.980;2023-04-08T08:17:55;6.20;99.90
5429;DHT22;2737;52.386;9.980;2023-04-08T08:20:22;6.20;99.90
5429;DHT22;2737;52.386;9.980;2023-04-08T08:22:49;6.30;99.90
5429;DHT22;2737;52.386;9.980;2023-04-08T08:25:16;6.20;99.90
5429;DHT22;2737;52.386;9.980;2023-04-08T08:27:44;6.20;99.90
5429;DHT22;2737;52.386;9.980;2023-04-08T08:30:11;6.30;99.90
5429;DHT22;2737;52.386;9.980;2023-04-08T08:32:40;6.30;99.90
5429;DHT22;2737;52.386;9.980;2023-04-08T08:35:08;6.40;99.90
5429;DHT22;2737;52.386;9.980;2023-04-08T08:37:35;6.50;99.90
5429;DHT22;2737;52.386;9.980;2023-04-08T08:40:02;6.60;99.90
5429;DHT22;2737;52.386;9.980;2023-04-08T08:42:29;6.50;99.90
5429;DHT22;2737;52.386;9.980;2023-04-08T08:44:56;6.50;99.90
5429;DHT22;2737;52.386;9.980;2023-04-08T08:47:24;6.60;99.90
5429;DHT22;2737;52.386;9.980;2023-04-08T08:49:52;6.60;99.90
5429;DHT22;2737;52.386;9.980;2023-04-08T08:52:19;6.70;99.90
5429;DHT22;2737;52.386;9.980;2023-04-08T08:54:46;6.80;99.90
5429;DHT22;2737;52.386;9.980;2023-04-08T08:57:16;6.90;99.90
5429;DHT22;2737;52.386;9.980;2023-04-08T08:59:45;6.90;99.90
5429;DHT22;2737;52.386;9.980;2023-04-08T09:02:23;6.90;99.90
5429;DHT22;2737;52.386;9.980;2023-04-08T09:04:57;6.70;99.90
5429;DHT22;2737;52.386;9.980;2023-04-08T09:07:26;6.70;99.90
5429;DHT22;2737;52.386;9.980;2023-04-08T09:09:55;6.80;99.90
5429;DHT22;2737;52.386;9.980;2023-04-08T09:12:23;6.80;99.90
5429;DHT22;2737;52.386;9.980;2023-04-08T09:14:50;6.90;99.90
5429;DHT22;2737;52.386;9.980;2023-04-08T09:17:30;6.90;99.90
5429;DHT22;2737;52.386;9.980;2023-04-08T09:20:08;6.90;99.90
5429;DHT22;2737;52.386;9.980;2023-04-08T09:22:55;6.90;99.90
5429;DHT22;2737;52.386;9.980;2023-04-08T09:25:23;6.90;99.90
5429;DHT22;2737;52.386;9.980;2023-04-08T09:27:50;6.80;99.90
5429;DHT22;2737;52.386;9.980;2023-04-08T09:30:19;6.90;99.90
5429;DHT22;2737;52.386;9.980;2023-04-08T09:32:47;6.90;99.90
5429;DHT22;2737;52.386;9.980;2023-04-08T09:35:17;6.90;99.90
5429;DHT22;2737;52.386;9.980;2023-04-08T09:37:44;7.00;99.90
5429;DHT22;2737;52.386;9.980;2023-04-08T09:40:12;7.00;99.90
5429;DHT22;2737;52.386;9.980;2023-04-08T09:42:44;7.10;99.90
5429;DHT22;2737;52.386;9.980;2023-04-08T09:45:15;7.00;99.90
5429;DHT22;2737;52.386;9.980;2023-04-08T09:47:52;7.10;99.90
5429;DHT22;2737;52.386;9.980;2023-04-08T09:50:26;7.20;99.90
5429;DHT22;2737;52.386;9.980;2023-04-08T09:53:00;7.10;99.90
5429;DHT22;2737;52.386;9.980;2023-04-08T09:55:30;7.10;99.90
5429;DHT22;2737;52.386;9.980;2023-04-08T09:58:03;7.00;99.90
5429;DHT22;2737;52.386;9.980;2023-04-08T10:00:33;7.00;99.90
5429;DHT22;2737;52.386;9.980;2023-04-08T10:03:09;6.90;99.90
5429;DHT22;2737;52.386;9.980;2023-04-08T10:05:40;6.90;99.90
5429;DHT22;2737;52.386;9.980;2023-04-08T10:08:07;6.90;99.90
5429;DHT22;2737;52.386;9.980;2023-04-08T10:10:38;7.00;99.90
5429;DHT22;2737;52.386;9.980;2023-04-08T10:13:06;7.10;99.90
5429;DHT22;2737;52.386;9.980;2023-04-08T10:15:34;7.20;99.90
5429;DHT22;2737;52.386;9.980;2023-04-08T10:18:30;7.30;99.90
5429;DHT22;2737;52.386;9.980;2023-04-08T10:21:02;7.30;99.90
5429;DHT22;2737;52.386;9.980;2023-04-08T10:23:52;7.30;99.90
5429;DHT22;2737;52.386;9.980;2023-04-08T10:26:29;7.30;99.90
5429;DHT22;2737;52.386;9.980;2023-04-08T10:29:30;7.30;99.90
5429;DHT22;2737;52.386;9.980;2023-04-08T10:31:57;7.30;99.90
5429;DHT22;2737;52.386;9.980;2023-04-08T10:34:26;7.20;99.90
5429;DHT22;2737;52.386;9.980;2023-04-08T10:36:55;7.20;99.90
5429;DHT22;2737;52.386;9.980;2023-04-08T10:39:24;7.30;99.90
5429;DHT22;2737;52.386;9.980;2023-04-08T10:41:53;7.30;99.90
5429;DHT22;2737;52.386;9.980;2023-04-08T10:44:21;7.40;99.90
5429;DHT22;2737;52.386;9.980;2023-04-08T10:46:50;7.40;99.90
5429;DHT22;2737;52.386;9.980;2023-04-08T10:49:18;7.40;99.90
5429;DHT22;2737;52.386;9.980;2023-04-08T10:51:46;7.50;99.90
5429;DHT22;2737;52.386;9.980;2023-04-08T10:54:16;7.40;99.90
5429;DHT22;2737;52.386;9.980;2023-04-08T10:56:45;7.30;99.90
5429;DHT22;2737;52.386;9.980;2023-04-08T10:59:13;7.40;99.90
5429;DHT22;2737;52.386;9.980;2023-04-08T11:01:43;7.40;99.90
5429;DHT22;2737;52.386;9.980;2023-04-08T11:04:11;7.40;99.90
5429;DHT22;2737;52.386;9.980;2023-04-08T11:06:40;7.40;99.90
5429;DHT22;2737;52.386;9.980;2023-04-08T11:09:07;7.40;99.90
5429;DHT22;2737;52.386;9.980;2023-04-08T11:11:36;7.40;99.90
5429;DHT22;2737;52.386;9.980;2023-04-08T11:14:03;7.40;99.90
5429;DHT22;2737;52.386;9.980;2023-04-08T11:16:32;7.40;99.90
5429;DHT22;2737;52.386;9.980;2023-04-08T11:19:01;7.50;99.90
5429;DHT22;2737;52.386;9.980;2023-04-08T11:21:29;7.60;99.90
5429;DHT22;2737;52.386;9.980;2023-04-08T11:23:57;7.60;99.90
5429;DHT22;2737;52.386;9.980;2023-04-08T11:26:24;7.70;99.90
5429;DHT22;2737;52.386;9.980;2023-04-08T11:28:53;7.80;99.90
5429;DHT22;2737;52.386;9.980;2023-04-08T11:31:22;7.80;99.90
5429;DHT22;2737;52.386;9.980;2023-04-08T11:33:52;7.80;99.90
5429;DHT22;2737;52.386;9.980;2023-04-08T11:36:20;7.70;99.90
5429;DHT22;2737;52.386;9.980;2023-04-08T11:38:47;7.70;99.90
5429;DHT22;2737;52.386;9.980;2023-04-08T11:41:14;7.70;99.90
5429;DHT22;2737;52.386;9.980;2023-04-08T11:43:53;7.70;99.90
5429;DHT22;2737;52.386;9.980;2023-04-08T11:46:21;7.70;99.90
5429;DHT22;2737;52.386;9.980;2023-04-08T11:48:59;7.70;99.90
5429;DHT22;2737;52.386;9.980;2023-04-08T11:51:26;7.60;99.90
5429;DHT22;2737;52.386;9.980;2023-04-08T11:53:53;7.60;99.90
5429;DHT22;2737;52.386;9.980;2023-04-08T11:56:21;7.60;99.90
5429;DHT22;2737;52.386;9.980;2023-04-08T11:58:49;7.60;99.90
5429;DHT22;2737;52.386;9.980;2023-04-08T12:01:18;7.70;99.90
5429;DHT22;2737;52.386;9.980;2023-04-08T12:03:58;7.70;99.90
5429;DHT22;2737;52.386;9.980;2023-04-08T12:06:26;7.80;99.90
5429;DHT22;2737;52.386;9.980;2023-04-08T12:08:54;7.80;99.90
5429;DHT22;2737;52.386;9.980;2023-04-08T12:11:22;7.80;99.90
5429;DHT22;2737;52.386;9.980;2023-04-08T12:13:49;7.80;99.90
5429;DHT22;2737;52.386;9.980;2023-04-08T12:16:18;7.70;99.90
5429;DHT22;2737;52.386;9.980;2023-04-08T12:18:46;7.70;99.90
5429;DHT22;2737;52.386;9.980;2023-04-08T12:21:13;7.70;99.90
5429;DHT22;2737;52.386;9.980;2023-04-08T12:23:40;7.70;99.90
5429;DHT22;2737;52.386;9.980;2023-04-08T12:26:07;7.60;99.90
5429;DHT22;2737;52.386;9.980;2023-04-08T12:28:34;7.60;99.90
5429;DHT22;2737;52.386;9.980;2023-04-08T12:31:02;7.60;99.90
5429;DHT22;2737;52.386;9.980;2023-04-08T12:33:30;7.60;99.90
5429;DHT22;2737;52.386;9.980;2023-04-08T12:35:57;7.70;99.90
5429;DHT22;2737;52.386;9.980;2023-04-08T12:38:25;7.70;99.90
5429;DHT22;2737;52.386;9.980;2023-04-08T12:40:52;7.70;99.90
5429;DHT22;2737;52.386;9.980;2023-04-08T12:43:20;7.70;99.90
5429;DHT22;2737;52.386;9.980;2023-04-08T12:45:48;7.80;99.90
5429;DHT22;2737;52.386;9.980;2023-04-08T12:48:15;7.80;99.90
5429;DHT22;2737;52.386;9.980;2023-04-08T12:50:43;7.80;99.90
5429;DHT22;2737;52.386;9.980;2023-04-08T12:53:11;7.80;99.90
5429;DHT22;2737;52.386;9.980;2023-04-08T12:55:38;7.80;99.90
5429;DHT22;2737;52.386;9.980;2023-04-08T12:58:05;7.80;99.90
5429;DHT22;2737;52.386;9.980;2023-04-08T13:00:32;7.90;99.90
5429;DHT22;2737;52.386;9.980;2023-04-08T13:03:02;7.90;99.90
5429;DHT22;2737;52.386;9.980;2023-04-08T13:05:29;7.90;99.90
5429;DHT22;2737;52.386;9.980;2023-04-08T13:07:58;8.00;99.90
5429;DHT22;2737;52.386;9.980;2023-04-08T13:10:25;8.00;99.90
5429;DHT22;2737;52.386;9.980;2023-04-08T13:12:52;8.00;99.90
5429;DHT22;2737;52.386;9.980;2023-04-08T13:15:19;8.10;99.90
5429;DHT22;2737;52.386;9.980;2023-04-08T13:17:46;8.10;99.90
5429;DHT22;2737;52.386;9.980;2023-04-08T13:20:13;8.10;99.90
5429;DHT22;2737;52.386;9.980;2023-04-08T13:22:40;8.10;99.90
5429;DHT22;2737;52.386;9.980;2023-04-08T13:25:09;8.10;99.90
5429;DHT22;2737;52.386;9.980;2023-04-08T13:27:36;8.10;99.90
5429;DHT22;2737;52.386;9.980;2023-04-08T13:30:04;8.10;99.90
5429;DHT22;2737;52.386;9.980;2023-04-08T13:32:31;8.20;99.90
5429;DHT22;2737;52.386;9.980;2023-04-08T13:34:58;8.20;99.90
5429;DHT22;2737;52.386;9.980;2023-04-08T13:37:25;7.80;99.90
5429;DHT22;2737;52.386;9.980;2023-04-08T13:39:53;7.90;99.90
5429;DHT22;2737;52.386;9.980;2023-04-08T13:42:21;7.90;99.90
5429;DHT22;2737;52.386;9.980;2023-04-08T13:44:49;8.00;99.90
5429;DHT22;2737;52.386;9.980;2023-04-08T13:47:17;8.10;99.90
5429;DHT22;2737;52.386;9.980;2023-04-08T13:49:43;8.20;99.90
5429;DHT22;2737;52.386;9.980;2023-04-08T13:52:10;8.10;99.90
5429;DHT22;2737;52.386;9.980;2023-04-08T13:54:37;8.00;99.90
5429;DHT22;2737;52.386;9.980;2023-04-08T13:57:04;8.10;99.90
5429;DHT22;2737;52.386;9.980;2023-04-08T13:59:33;8.20;99.90
5429;DHT22;2737;52.386;9.980;2023-04-08T14:02:00;8.30;99.90
5429;DHT22;2737;52.386;9.980;2023-04-08T14:04:27;8.30;99.90
5429;DHT22;2737;52.386;9.980;2023-04-08T14:06:54;8.20;99.90
5429;DHT22;2737;52.386;9.980;2023-04-08T14:09:23;8.20;99.90
5429;DHT22;2737;52.386;9.980;2023-04-08T14:11:50;8.20;99.90
5429;DHT22;2737;52.386;9.980;2023-04-08T14:14:17;8.30;99.90
5429;DHT22;2737;52.386;9.980;2023-04-08T14:16:45;8.40;99.90
5429;DHT22;2737;52.386;9.980;2023-04-08T14:19:13;8.40;99.90
5429;DHT22;2737;52.386;9.980;2023-04-08T14:21:40;8.50;99.90
5429;DHT22;2737;52.386;9.980;2023-04-08T14:24:08;8.40;99.90
5429;DHT22;2737;52.386;9.980;2023-04-08T14:26:35;8.40;99.90
5429;DHT22;2737;52.386;9.980;2023-04-08T14:29:03;8.50;99.90
5429;DHT22;2737;52.386;9.980;2023-04-08T14:31:30;8.50;99.90
5429;DHT22;2737;52.386;9.980;2023-04-08T14:33:59;8.40;99.90
5429;DHT22;2737;52.386;9.980;2023-04-08T14:36:26;8.40;99.90
5429;DHT22;2737;52.386;9.980;2023-04-08T14:38:54;8.30;99.90
5429;DHT22;2737;52.386;9.980;2023-04-08T14:41:22;8.40;99.90
5429;DHT22;2737;52.386;9.980;2023-04-08T14:43:50;8.50;99.90
5429;DHT22;2737;52.386;9.980;2023-04-08T14:46:18;8.50;99.90
5429;DHT22;2737;52.386;9.980;2023-04-08T14:48:45;8.50;99.90
5429;DHT22;2737;52.386;9.980;2023-04-08T14:51:13;8.40;99.90
5429;DHT22;2737;52.386;9.980;2023-04-08T14:53:40;8.30;99.90
5429;DHT22;2737;52.386;9.980;2023-04-08T14:56:07;8.50;99.90
5429;DHT22;2737;52.386;9.980;2023-04-08T14:58:34;8.50;99.90
5429;DHT22;2737;52.386;9.980;2023-04-08T15:01:02;8.40;99.90
5429;DHT22;2737;52.386;9.980;2023-04-08T15:03:29;8.50;99.90
5429;DHT22;2737;52.386;9.980;2023-04-08T15:05:57;8.50;99.90
5429;DHT22;2737;52.386;9.980;2023-04-08T15:08:26;8.50;99.90
5429;DHT22;2737;52.386;9.980;2023-04-08T15:10:53;8.50;99.90
5429;DHT22;2737;52.386;9.980;2023-04-08T15:13:20;8.60;99.90
5429;DHT22;2737;52.386;9.980;2023-04-08T15:15:47;8.50;99.90
5429;DHT22;2737;52.386;9.980;2023-04-08T15:18:14;8.50;99.90
5429;DHT22;2737;52.386;9.980;2023-04-08T15:20:41;8.50;99.90
5429;DHT22;2737;52.386;9.980;2023-04-08T15:23:08;8.50;99.90
5429;DHT22;2737;52.386;9.980;2023-04-08T15:25:37;8.40;99.90
5429;DHT22;2737;52.386;9.980;2023-04-08T15:28:04;8.40;99.90
5429;DHT22;2737;52.386;9.980;2023-04-08T15:30:32;8.40;99.90
5429;DHT22;2737;52.386;9.980;2023-04-08T15:33:02;8.30;99.90
5429;DHT22;2737;52.386;9.980;2023-04-08T15:35:29;8.30;99.90
5429;DHT22;2737;52.386;9.980;2023-04-08T15:37:56;8.30;99.90
5429;DHT22;2737;52.386;9.980;2023-04-08T15:40:23;8.30;99.90
5429;DHT22;2737;52.386;9.980;2023-04-08T15:42:51;8.20;99.90
5429;DHT22;2737;52.386;9.980;2023-04-08T15:45:19;8.20;99.90
5429;DHT22;2737;52.386;9.980;2023-04-08T15:47:46;8.20;99.90
5429;DHT22;2737;52.386;9.980;2023-04-08T15:50:13;8.20;99.90
5429;DHT22;2737;52.386;9.980;2023-04-08T15:52:42;8.20;99.90
5429;DHT22;2737;52.386;9.980;2023-04-08T15:55:09;8.10;99.90
5429;DHT22;2737;52.386;9.980;2023-04-08T15:57:36;8.10;99.90
5429;DHT22;2737;52.386;9.980;2023-04-08T16:00:08;8.10;99.90
5429;DHT22;2737;52.386;9.980;2023-04-08T16:02:35;8.10;99.90
5429;DHT22;2737;52.386;9.980;2023-04-08T16:05:03;8.10;99.90
5429;DHT22;2737;52.386;9.980;2023-04-08T16:07:30;8.10;99.90
5429;DHT22;2737;52.386;9.980;2023-04-08T16:09:57;8.00;99.90
5429;DHT22;2737;52.386;9.980;2023-04-08T16:12:24;8.00;99.90
5429;DHT22;2737;52.386;9.980;2023-04-08T16:14:51;8.00;99.90
5429;DHT22;2737;52.386;9.980;2023-04-08T16:17:20;7.90;99.90
5429;DHT22;2737;52.386;9.980;2023-04-08T16:19:48;7.90;99.90
5429;DHT22;2737;52.386;9.980;2023-04-08T16:22:16;7.90;99.90
5429;DHT22;2737;52.386;9.980;2023-04-08T16:24:43;7.90;99.90